sensor_id;sensor_type;location;lat;lon;timestamp;pressure;altitude;pressure_sealevel;temperature;humidity
13934;BME280;7039;52.168;9.866;2023-03-16T00:02:25;101069.19;;;2.90;68.28
13934;BME280;7039;52.168;9.866;2023-03-16T00:04:52;101070.00;;;2.97;68.18
13934;BME280;7039;52.168;9.866;2023-03-16T00:07:19;101069.03;;;3.10;67.18
13934;BME280;7039;52.168;9.866;2023-03-16T00:09:46;101068.28;;;2.99;67.22
13934;BME280;7039;52.168;9.866;2023-03-16T00:12:14;101072.66;;;2.87;67.29
13934;BME280;7039;52.168;9.866;2023-03-16T00:14:42;101075.91;;;3.06;67.56
13934;BME280;7039;52.168;9.866;2023-03-16T00:17:10;101081.88;;;3.13;67.03
13934;BME280;7039;52.168;9.866;2023-03-16T00:19:43;101065.06;;;2.75;66.99
13934;BME280;7039;52.168;9.866;2023-03-16T00:22:11;101068.28;;;2.97;67.19
13934;BME280;7039;52.168;9.866;2023-03-16T00:24:39;101064.94;;;2.87;67.28
13934;BME280;7039;52.168;9.866;2023-03-16T00:27:07;101071.00;;;2.80;67.47
13934;BME280;7039;52.168;9.866;2023-03-16T00:29:34;101066.66;;;2.84;67.41
13934;BME280;7039;52.168;9.866;2023-03-16T00:32:00;101065.91;;;2.74;67.81
13934;BME280;7039;52.168;9.866;2023-03-16T00:34:28;101070.97;;;2.85;67.68
13934;BME280;7039;52.168;9.866;2023-03-16T00:36:58;101065.91;;;2.77;68.14
13934;BME280;7039;52.168;9.866;2023-03-16T00:39:25;101059.06;;;2.73;68.27
13934;BME280;7039;52.168;9.866;2023-03-16T00:41:52;101064.22;;;2.73;67.98
13934;BME280;7039;52.168;9.866;2023-03-16T00:44:22;101067.50;;;2.87;67.50
13934;BME280;7039;52.168;9.866;2023-03-16T00:46:49;101065.94;;;2.72;68.05
13934;BME280;7039;52.168;9.866;2023-03-16T00:49:15;101059.06;;;2.70;67.57
13934;BME280;7039;52.168;9.866;2023-03-16T00:51:43;101057.25;;;2.83;67.89
13934;BME280;7039;52.168;9.866;2023-03-16T00:54:10;101056.53;;;2.67;68.21
13934;BME280;7039;52.168;9.866;2023-03-16T00:56:37;101061.59;;;2.76;68.10
13934;BME280;7039;52.168;9.866;2023-03-16T00:59:03;101058.09;;;2.86;67.90
13934;BME280;7039;52.168;9.866;2023-03-16T01:01:30;101048.69;;;2.79;68.33
13934;BME280;7039;52.168;9.866;2023-03-16T01:03:57;101055.59;;;2.77;67.90
13934;BME280;7039;52.168;9.866;2023-03-16T01:06:24;101052.97;;;2.79;67.78
13934;BME280;7039;52.168;9.866;2023-03-16T01:08:52;101062.34;;;2.89;67.73
13934;BME280;7039;52.168;9.866;2023-03-16T01:11:20;101047.75;;;2.88;67.83
13934;BME280;7039;52.168;9.866;2023-03-16T01:13:48;101057.13;;;2.95;67.74
13934;BME280;7039;52.168;9.866;2023-03-16T01:16:18;101050.31;;;2.91;67.16
13934;BME280;7039;52.168;9.866;2023-03-16T01:18:47;101045.41;;;2.62;67.08
13934;BME280;7039;52.168;9.866;2023-03-16T01:21:14;101048.66;;;2.82;67.13
13934;BME280;7039;52.168;9.866;2023-03-16T01:23:40;101046.91;;;2.86;67.26
13934;BME280;7039;52.168;9.866;2023-03-16T01:26:10;101040.91;;;2.88;66.82
13934;BME280;7039;52.168;9.866;2023-03-16T01:28:36;101049.53;;;2.81;66.87
13934;BME280;7039;52.168;9.866;2023-03-16T01:31:06;101045.25;;;2.82;66.91
13934;BME280;7039;52.168;9.866;2023-03-16T01:33:33;101046.94;;;2.81;67.60
13934;BME280;7039;52.168;9.866;2023-03-16T01:36:02;101046.97;;;2.80;68.09
13934;BME280;7039;52.168;9.866;2023-03-16T01:38:29;101047.88;;;2.77;67.76
13934;BME280;7039;52.168;9.866;2023-03-16T01:40:56;101044.44;;;2.74;67.49
13934;BME280;7039;52.168;9.866;2023-03-16T01:43:25;101036.88;;;2.54;67.47
13934;BME280;7039;52.168;9.866;2023-03-16T01:46:13;101039.34;;;2.69;67.61
13934;BME280;7039;52.168;9.866;2023-03-16T01:48:45;101035.91;;;2.67;67.59
13934;BME280;7039;52.168;9.866;2023-03-16T01:51:15;101029.06;;;2.63;68.09
13934;BME280;7039;52.168;9.866;2023-03-16T01:53:46;101037.66;;;2.66;68.03
13934;BME280;7039;52.168;9.866;2023-03-16T01:56:17;101041.78;;;2.81;67.97
13934;BME280;7039;52.168;9.866;2023-03-16T01:58:46;101039.34;;;2.69;67.68
13934;BME280;7039;52.168;9.866;2023-03-16T02:01:15;101030.81;;;2.61;68.39
13934;BME280;7039;52.168;9.866;2023-03-16T02:03:43;101033.34;;;2.65;68.35
13934;BME280;7039;52.168;9.866;2023-03-16T02:06:11;101035.91;;;2.65;67.79
13934;BME280;7039;52.168;9.866;2023-03-16T02:08:41;101039.38;;;2.66;68.17
13934;BME280;7039;52.168;9.866;2023-03-16T02:11:09;101030.84;;;2.58;68.07
13934;BME280;7039;52.168;9.866;2023-03-16T02:13:36;101027.47;;;2.53;68.52
13934;BME280;7039;52.168;9.866;2023-03-16T02:16:06;101029.16;;;2.57;68.75
13934;BME280;7039;52.168;9.866;2023-03-16T02:18:34;101037.69;;;2.60;68.34
13934;BME280;7039;52.168;9.866;2023-03-16T02:21:06;101041.91;;;2.69;68.23
13934;BME280;7039;52.168;9.866;2023-03-16T02:23:37;101028.31;;;2.53;68.18
13934;BME280;7039;52.168;9.866;2023-03-16T02:26:09;101024.03;;;2.49;68.55
13934;BME280;7039;52.168;9.866;2023-03-16T02:28:43;101023.22;;;2.42;68.07
13934;BME280;7039;52.168;9.866;2023-03-16T02:31:14;101018.09;;;2.44;68.20
13934;BME280;7039;52.168;9.866;2023-03-16T02:33:43;101024.94;;;2.45;68.03
13934;BME280;7039;52.168;9.866;2023-03-16T02:36:11;101021.50;;;2.43;68.25
13934;BME280;7039;52.168;9.866;2023-03-16T02:38:39;101012.09;;;2.40;68.19
13934;BME280;7039;52.168;9.866;2023-03-16T02:41:10;101020.59;;;2.53;68.14
13934;BME280;7039;52.168;9.866;2023-03-16T02:43:39;101010.34;;;2.44;68.30
13934;BME280;7039;52.168;9.866;2023-03-16T02:46:07;101006.06;;;2.43;68.31
13934;BME280;7039;52.168;9.866;2023-03-16T02:48:40;101011.09;;;2.61;68.28
13934;BME280;7039;52.168;9.866;2023-03-16T02:51:10;101003.41;;;2.54;68.29
13934;BME280;7039;52.168;9.866;2023-03-16T02:53:36;100996.59;;;2.46;68.25
13934;BME280;7039;52.168;9.866;2023-03-16T02:56:03;100994.84;;;2.53;67.76
13934;BME280;7039;52.168;9.866;2023-03-16T02:58:30;100987.91;;;2.60;67.85
13934;BME280;7039;52.168;9.866;2023-03-16T03:00:57;100976.81;;;2.53;67.51
13934;BME280;7039;52.168;9.866;2023-03-16T03:03:23;100981.13;;;2.49;67.79
13934;BME280;7039;52.168;9.866;2023-03-16T03:05:51;100979.38;;;2.55;68.27
13934;BME280;7039;52.168;9.866;2023-03-16T03:08:18;100981.97;;;2.51;67.62
13934;BME280;7039;52.168;9.866;2023-03-16T03:10:47;100988.00;;;2.50;67.09
13934;BME280;7039;52.168;9.866;2023-03-16T03:13:13;100981.97;;;2.51;68.08
13934;BME280;7039;52.168;9.866;2023-03-16T03:15:39;100986.19;;;2.59;67.17
13934;BME280;7039;52.168;9.866;2023-03-16T03:18:06;100978.47;;;2.59;67.41
13934;BME280;7039;52.168;9.866;2023-03-16T03:20:33;100976.84;;;2.47;66.51
13934;BME280;7039;52.168;9.866;2023-03-16T03:23:01;100981.03;;;2.62;66.75
13934;BME280;7039;52.168;9.866;2023-03-16T03:25:28;100978.41;;;2.63;66.20
13934;BME280;7039;52.168;9.866;2023-03-16T03:27:54;100973.22;;;2.69;65.93
13934;BME280;7039;52.168;9.866;2023-03-16T03:30:23;100975.03;;;2.60;65.89
13934;BME280;7039;52.168;9.866;2023-03-16T03:32:49;100967.41;;;2.49;65.89
13934;BME280;7039;52.168;9.866;2023-03-16T03:35:17;100969.09;;;2.51;65.88
13934;BME280;7039;52.168;9.866;2023-03-16T03:37:43;100966.50;;;2.53;65.82
13934;BME280;7039;52.168;9.866;2023-03-16T03:40:13;100967.44;;;2.46;66.45
13934;BME280;7039;52.168;9.866;2023-03-16T03:42:41;100973.56;;;2.31;66.02
13934;BME280;7039;52.168;9.866;2023-03-16T03:45:09;100981.16;;;2.48;66.14
13934;BME280;7039;52.168;9.866;2023-03-16T03:47:36;100978.59;;;2.48;65.97
13934;BME280;7039;52.168;9.866;2023-03-16T03:50:04;100976.03;;;2.43;66.95
13934;BME280;7039;52.168;9.866;2023-03-16T03:52:30;100982.00;;;2.47;66.24
13934;BME280;7039;52.168;9.866;2023-03-16T03:54:57;100982.94;;;2.41;66.23
13934;BME280;7039;52.168;9.866;2023-03-16T03:57:25;100977.84;;;2.29;66.50
13934;BME280;7039;52.168;9.866;2023-03-16T03:59:51;100982.94;;;2.38;66.53
13934;BME280;7039;52.168;9.866;2023-03-16T04:02:17;100983.78;;;2.42;66.38
13934;BME280;7039;52.168;9.866;2023-03-16T04:04:44;100972.75;;;2.26;66.82
13934;BME280;7039;52.168;9.866;2023-03-16T04:07:10;100976.13;;;2.34;67.36
13934;BME280;7039;52.168;9.866;2023-03-16T04:09:37;100976.06;;;2.40;66.55
13934;BME280;7039;52.168;9.866;2023-03-16T04:12:05;100966.69;;;2.32;66.96
13934;BME280;7039;52.168;9.866;2023-03-16T04:14:33;100972.72;;;2.29;67.18
13934;BME280;7039;52.168;9.866;2023-03-16T04:16:59;100965.13;;;2.14;67.12
13934;BME280;7039;52.168;9.866;2023-03-16T04:19:26;100979.69;;;2.13;68.47
13934;BME280;7039;52.168;9.866;2023-03-16T04:21:52;100979.59;;;2.27;68.23
13934;BME280;7039;52.168;9.866;2023-03-16T04:24:19;100991.56;;;2.34;67.42
13934;BME280;7039;52.168;9.866;2023-03-16T04:26:46;100985.63;;;2.24;67.75
13934;BME280;7039;52.168;9.866;2023-03-16T04:29:14;100987.25;;;2.35;67.98
13934;BME280;7039;52.168;9.866;2023-03-16T04:31:43;100983.81;;;2.37;67.82
13934;BME280;7039;52.168;9.866;2023-03-16T04:34:11;100986.34;;;2.42;68.03
13934;BME280;7039;52.168;9.866;2023-03-16T04:36:37;100983.81;;;2.39;68.18
13934;BME280;7039;52.168;9.866;2023-03-16T04:39:04;100983.78;;;2.40;67.95
13934;BME280;7039;52.168;9.866;2023-03-16T04:41:31;100976.06;;;2.42;68.54
13934;BME280;7039;52.168;9.866;2023-03-16T04:43:58;100967.56;;;2.32;68.20
13934;BME280;7039;52.168;9.866;2023-03-16T04:46:25;100978.63;;;2.42;68.45
13934;BME280;7039;52.168;9.866;2023-03-16T04:48:53;100977.75;;;2.46;68.18
13934;BME280;7039;52.168;9.866;2023-03-16T04:51:23;100974.34;;;2.41;68.52
13934;BME280;7039;52.168;9.866;2023-03-16T04:53:49;100967.47;;;2.38;68.41
13934;BME280;7039;52.168;9.866;2023-03-16T04:56:15;100976.81;;;2.53;68.13
13934;BME280;7039;52.168;9.866;2023-03-16T04:58:43;100971.69;;;2.48;68.33
13934;BME280;7039;52.168;9.866;2023-03-16T05:01:09;100964.09;;;2.35;68.79
13934;BME280;7039;52.168;9.866;2023-03-16T05:03:37;100962.34;;;2.40;69.07
13934;BME280;7039;52.168;9.866;2023-03-16T05:06:05;100966.63;;;2.39;69.04
13934;BME280;7039;52.168;9.866;2023-03-16T05:08:32;100969.22;;;2.36;68.83
13934;BME280;7039;52.168;9.866;2023-03-16T05:10:58;100978.66;;;2.39;69.14
13934;BME280;7039;52.168;9.866;2023-03-16T05:13:25;100975.19;;;2.41;69.02
13934;BME280;7039;52.168;9.866;2023-03-16T05:15:51;100972.75;;;2.26;69.87
13934;BME280;7039;52.168;9.866;2023-03-16T05:18:18;100972.72;;;2.30;69.57
13934;BME280;7039;52.168;9.866;2023-03-16T05:20:48;100978.66;;;2.36;70.09
13934;BME280;7039;52.168;9.866;2023-03-16T05:23:16;100982.00;;;2.47;69.45
13934;BME280;7039;52.168;9.866;2023-03-16T05:25:42;100970.97;;;2.31;69.43
13934;BME280;7039;52.168;9.866;2023-03-16T05:28:09;100984.63;;;2.44;69.50
13934;BME280;7039;52.168;9.866;2023-03-16T05:30:35;100976.06;;;2.40;69.85
13934;BME280;7039;52.168;9.866;2023-03-16T05:33:02;100970.16;;;2.24;69.58
13934;BME280;7039;52.168;9.866;2023-03-16T05:35:28;100981.16;;;2.46;69.18
13934;BME280;7039;52.168;9.866;2023-03-16T05:37:56;100978.63;;;2.43;69.07
13934;BME280;7039;52.168;9.866;2023-03-16T05:40:24;100980.22;;;2.52;69.80
13934;BME280;7039;52.168;9.866;2023-03-16T05:42:54;100975.97;;;2.51;69.61
13934;BME280;7039;52.168;9.866;2023-03-16T05:45:22;100965.72;;;2.46;69.52
13934;BME280;7039;52.168;9.866;2023-03-16T05:47:49;100964.69;;;2.63;69.16
13934;BME280;7039;52.168;9.866;2023-03-16T05:50:16;100956.97;;;2.66;69.04
13934;BME280;7039;52.168;9.866;2023-03-16T05:52:43;100966.28;;;2.75;69.45
13934;BME280;7039;52.168;9.866;2023-03-16T05:55:12;100971.34;;;2.84;68.97
13934;BME280;7039;52.168;9.866;2023-03-16T05:57:41;100969.53;;;2.95;68.63
13934;BME280;7039;52.168;9.866;2023-03-16T06:00:10;100972.88;;;3.03;68.49
13934;BME280;7039;52.168;9.866;2023-03-16T06:02:41;100973.63;;;3.14;68.33
13934;BME280;7039;52.168;9.866;2023-03-16T06:05:08;100972.66;;;3.23;67.80
13934;BME280;7039;52.168;9.866;2023-03-16T06:07:35;100957.13;;;3.29;67.63
13934;BME280;7039;52.168;9.866;2023-03-16T06:10:02;100949.47;;;3.20;67.16
13934;BME280;7039;52.168;9.866;2023-03-16T06:12:30;100958.81;;;3.30;67.57
13934;BME280;7039;52.168;9.866;2023-03-16T06:14:57;100941.50;;;3.42;67.16
13934;BME280;7039;52.168;9.866;2023-03-16T06:17:24;100950.84;;;3.49;67.59
13934;BME280;7039;52.168;9.866;2023-03-16T06:19:51;100955.94;;;3.55;67.17
13934;BME280;7039;52.168;9.866;2023-03-16T06:22:17;100948.13;;;3.60;67.15
13934;BME280;7039;52.168;9.866;2023-03-16T06:24:44;100946.31;;;3.66;67.08
13934;BME280;7039;52.168;9.866;2023-03-16T06:27:11;100952.25;;;3.73;66.86
13934;BME280;7039;52.168;9.866;2023-03-16T06:29:37;100946.34;;;3.65;66.75
13934;BME280;7039;52.168;9.866;2023-03-16T06:32:05;100947.16;;;3.67;67.15
13934;BME280;7039;52.168;9.866;2023-03-16T06:34:32;100941.94;;;3.71;67.18
13934;BME280;7039;52.168;9.866;2023-03-16T06:36:59;100936.28;;;3.45;67.22
13934;BME280;7039;52.168;9.866;2023-03-16T06:39:25;100947.88;;;3.76;66.65
13934;BME280;7039;52.168;9.866;2023-03-16T06:41:52;100942.31;;;3.45;67.01
13934;BME280;7039;52.168;9.866;2023-03-16T06:44:18;100939.75;;;3.45;66.57
13934;BME280;7039;52.168;9.866;2023-03-16T06:46:45;100926.53;;;3.68;66.51
13934;BME280;7039;52.168;9.866;2023-03-16T06:49:13;100949.81;;;3.61;66.85
13934;BME280;7039;52.168;9.866;2023-03-16T06:51:39;100951.34;;;3.75;66.34
13934;BME280;7039;52.168;9.866;2023-03-16T06:54:06;100953.31;;;3.58;66.56
13934;BME280;7039;52.168;9.866;2023-03-16T06:56:32;100962.53;;;3.74;66.14
13934;BME280;7039;52.168;9.866;2023-03-16T06:58:59;100951.16;;;3.89;65.90
13934;BME280;7039;52.168;9.866;2023-03-16T07:01:25;100961.34;;;3.97;65.43
13934;BME280;7039;52.168;9.866;2023-03-16T07:03:52;100954.50;;;3.96;64.88
13934;BME280;7039;52.168;9.866;2023-03-16T07:06:20;100964.59;;;4.11;64.55
13934;BME280;7039;52.168;9.866;2023-03-16T07:08:46;100965.53;;;4.06;64.29
13934;BME280;7039;52.168;9.866;2023-03-16T07:11:13;100967.47;;;4.46;63.58
13934;BME280;7039;52.168;9.866;2023-03-16T07:13:40;100974.69;;;4.76;62.93
13934;BME280;7039;52.168;9.866;2023-03-16T07:16:07;100977.44;;;4.67;62.85
13934;BME280;7039;52.168;9.866;2023-03-16T07:18:33;100976.75;;;4.56;62.04
13934;BME280;7039;52.168;9.866;2023-03-16T07:21:02;100987.25;;;4.96;62.42
13934;BME280;7039;52.168;9.866;2023-03-16T07:23:29;100980.66;;;4.81;62.11
13934;BME280;7039;52.168;9.866;2023-03-16T07:25:56;100990.50;;;4.58;61.47
13934;BME280;7039;52.168;9.866;2023-03-16T07:28:23;100990.25;;;4.72;61.72
13934;BME280;7039;52.168;9.866;2023-03-16T07:30:49;100986.16;;;4.60;61.29
13934;BME280;7039;52.168;9.866;2023-03-16T07:33:16;100993.44;;;4.88;60.58
13934;BME280;7039;52.168;9.866;2023-03-16T07:35:44;100986.69;;;4.79;60.66
13934;BME280;7039;52.168;9.866;2023-03-16T07:38:11;100982.50;;;4.73;60.10
13934;BME280;7039;52.168;9.866;2023-03-16T07:40:39;100988.41;;;4.80;60.08
13934;BME280;7039;52.168;9.866;2023-03-16T07:43:06;100991.66;;;4.91;60.07
13934;BME280;7039;52.168;9.866;2023-03-16T07:45:32;100992.59;;;4.87;59.94
13934;BME280;7039;52.168;9.866;2023-03-16T07:47:59;100995.63;;;5.09;59.14
13934;BME280;7039;52.168;9.866;2023-03-16T07:50:26;100993.22;;;5.00;57.81
13934;BME280;7039;52.168;9.866;2023-03-16T07:52:52;100996.84;;;4.88;58.56
13934;BME280;7039;52.168;9.866;2023-03-16T07:55:19;101006.47;;;5.28;58.35
13934;BME280;7039;52.168;9.866;2023-03-16T07:57:47;101004.50;;;5.41;57.63
13934;BME280;7039;52.168;9.866;2023-03-16T08:00:14;101004.59;;;5.35;57.23
13934;BME280;7039;52.168;9.866;2023-03-16T08:02:40;101006.94;;;5.47;57.17
13934;BME280;7039;52.168;9.866;2023-03-16T08:05:07;101007.66;;;5.55;56.38
13934;BME280;7039;52.168;9.866;2023-03-16T08:07:35;100996.50;;;5.08;56.72
13934;BME280;7039;52.168;9.866;2023-03-16T08:10:02;101002.38;;;5.18;57.38
13934;BME280;7039;52.168;9.866;2023-03-16T08:12:28;100987.97;;;5.05;57.28
13934;BME280;7039;52.168;9.866;2023-03-16T08:14:57;100997.41;;;5.06;57.52
13934;BME280;7039;52.168;9.866;2023-03-16T08:17:23;100998.34;;;5.01;57.92
13934;BME280;7039;52.168;9.866;2023-03-16T08:19:50;101003.66;;;4.95;57.52
13934;BME280;7039;52.168;9.866;2023-03-16T08:22:17;101001.56;;;5.14;57.77
13934;BME280;7039;52.168;9.866;2023-03-16T08:24:45;101019.13;;;5.42;57.24
13934;BME280;7039;52.168;9.866;2023-03-16T08:27:11;101002.56;;;5.07;57.00
13934;BME280;7039;52.168;9.866;2023-03-16T08:29:40;101006.16;;;5.45;56.62
13934;BME280;7039;52.168;9.866;2023-03-16T08:32:08;101021.31;;;5.62;56.89
13934;BME280;7039;52.168;9.866;2023-03-16T08:34:34;101021.81;;;5.79;56.09
13934;BME280;7039;52.168;9.866;2023-03-16T08:37:00;101016.25;;;5.56;55.82
13934;BME280;7039;52.168;9.866;2023-03-16T08:39:28;101006.59;;;5.64;56.12
13934;BME280;7039;52.168;9.866;2023-03-16T08:41:55;101005.16;;;5.51;56.59
13934;BME280;7039;52.168;9.866;2023-03-16T08:44:21;101015.50;;;5.93;56.34
13934;BME280;7039;52.168;9.866;2023-03-16T08:46:50;101004.38;;;5.88;56.37
13934;BME280;7039;52.168;9.866;2023-03-16T08:49:18;101000.50;;;5.68;55.97
13934;BME280;7039;52.168;9.866;2023-03-16T08:51:45;101019.50;;;6.07;56.00
13934;BME280;7039;52.168;9.866;2023-03-16T08:54:12;101019.84;;;5.91;55.70
13934;BME280;7039;52.168;9.866;2023-03-16T08:56:39;101017.25;;;5.91;54.76
13934;BME280;7039;52.168;9.866;2023-03-16T08:59:06;101023.59;;;6.18;55.09
13934;BME280;7039;52.168;9.866;2023-03-16T09:01:33;101015.63;;;6.25;53.88
13934;BME280;7039;52.168;9.866;2023-03-16T09:03:59;101016.50;;;6.60;54.80
13934;BME280;7039;52.168;9.866;2023-03-16T09:06:27;101014.69;;;6.64;54.04
13934;BME280;7039;52.168;9.866;2023-03-16T09:08:54;100995.03;;;6.57;53.67
13934;BME280;7039;52.168;9.866;2023-03-16T09:11:21;101000.97;;;6.60;53.75
13934;BME280;7039;52.168;9.866;2023-03-16T09:13:50;101001.91;;;6.56;53.39
13934;BME280;7039;52.168;9.866;2023-03-16T09:16:16;101001.78;;;6.62;53.02
13934;BME280;7039;52.168;9.866;2023-03-16T09:18:43;100989.75;;;6.60;53.13
13934;BME280;7039;52.168;9.866;2023-03-16T09:21:10;100996.66;;;6.94;52.87
13934;BME280;7039;52.168;9.866;2023-03-16T09:23:39;100991.28;;;6.67;53.17
13934;BME280;7039;52.168;9.866;2023-03-16T09:26:07;100989.22;;;6.81;52.47
13934;BME280;7039;52.168;9.866;2023-03-16T09:28:35;100985.38;;;6.95;52.66
13934;BME280;7039;52.168;9.866;2023-03-16T09:31:03;100978.88;;;6.80;52.99
13934;BME280;7039;52.168;9.866;2023-03-16T09:33:30;100964.84;;;6.54;53.30
13934;BME280;7039;52.168;9.866;2023-03-16T09:35:58;100967.44;;;6.54;52.92
13934;BME280;7039;52.168;9.866;2023-03-16T09:38:25;100971.47;;;6.66;53.30
13934;BME280;7039;52.168;9.866;2023-03-16T09:40:57;100968.19;;;6.58;51.88
13934;BME280;7039;52.168;9.866;2023-03-16T09:43:36;100963.28;;;6.81;51.87
13934;BME280;7039;52.168;9.866;2023-03-16T09:46:11;100963.34;;;7.11;51.63
13934;BME280;7039;52.168;9.866;2023-03-16T09:48:39;100963.16;;;7.17;51.05
13934;BME280;7039;52.168;9.866;2023-03-16T09:51:15;100967.50;;;7.46;51.25
13934;BME280;7039;52.168;9.866;2023-03-16T09:53:45;100972.78;;;7.73;51.02
13934;BME280;7039;52.168;9.866;2023-03-16T09:56:17;100962.41;;;7.43;49.94
13934;BME280;7039;52.168;9.866;2023-03-16T09:58:45;100964.22;;;7.41;49.54
13934;BME280;7039;52.168;9.866;2023-03-16T10:01:15;100963.03;;;7.51;49.49
13934;BME280;7039;52.168;9.866;2023-03-16T10:04:08;100960.69;;;7.42;49.83
13934;BME280;7039;52.168;9.866;2023-03-16T10:06:44;100968.47;;;7.44;49.24
13934;BME280;7039;52.168;9.866;2023-03-16T10:09:20;100970.81;;;7.51;49.20
13934;BME280;7039;52.168;9.866;2023-03-16T10:11:53;100977.81;;;7.79;49.05
13934;BME280;7039;52.168;9.866;2023-03-16T10:14:24;100982.72;;;7.88;48.70
13934;BME280;7039;52.168;9.866;2023-03-16T10:16:56;100982.88;;;7.82;49.45
13934;BME280;7039;52.168;9.866;2023-03-16T10:19:32;100970.78;;;7.53;49.07
13934;BME280;7039;52.168;9.866;2023-03-16T10:22:01;100970.00;;;7.79;48.77
13934;BME280;7039;52.168;9.866;2023-03-16T10:24:41;100965.00;;;8.28;49.38
13934;BME280;7039;52.168;9.866;2023-03-16T10:27:16;100957.38;;;8.50;48.84
13934;BME280;7039;52.168;9.866;2023-03-16T10:29:47;100962.75;;;8.45;48.20
13934;BME280;7039;52.168;9.866;2023-03-16T10:32:15;100948.41;;;8.05;47.87
13934;BME280;7039;52.168;9.866;2023-03-16T10:34:46;100947.94;;;8.47;48.73
13934;BME280;7039;52.168;9.866;2023-03-16T10:37:13;100949.44;;;8.26;47.16
13934;BME280;7039;52.168;9.866;2023-03-16T10:39:40;100934.84;;;8.50;47.32
13934;BME280;7039;52.168;9.866;2023-03-16T10:42:14;100955.34;;;8.58;47.61
13934;BME280;7039;52.168;9.866;2023-03-16T10:44:42;100949.59;;;8.50;47.20
13934;BME280;7039;52.168;9.866;2023-03-16T10:47:16;100950.88;;;8.63;47.19
13934;BME280;7039;52.168;9.866;2023-03-16T10:49:44;100947.16;;;8.45;46.51
13934;BME280;7039;52.168;9.866;2023-03-16T10:52:17;100949.13;;;8.64;46.62
13934;BME280;7039;52.168;9.866;2023-03-16T10:54:49;100940.84;;;8.77;47.16
13934;BME280;7039;52.168;9.866;2023-03-16T10:57:23;100927.16;;;8.96;47.25
13934;BME280;7039;52.168;9.866;2023-03-16T10:59:51;100929.00;;;9.17;47.56
13934;BME280;7039;52.168;9.866;2023-03-16T11:02:21;100932.19;;;9.24;47.27
13934;BME280;7039;52.168;9.866;2023-03-16T11:07:25;100915.97;;;8.94;46.16
13934;BME280;7039;52.168;9.866;2023-03-16T11:09:53;100917.22;;;8.84;46.86
13934;BME280;7039;52.168;9.866;2023-03-16T11:12:46;100920.94;;;9.24;46.47
13934;BME280;7039;52.168;9.866;2023-03-16T11:15:35;100915.88;;;9.66;46.19
13934;BME280;7039;52.168;9.866;2023-03-16T11:18:02;100916.59;;;9.48;46.07
13934;BME280;7039;52.168;9.866;2023-03-16T11:20:31;100908.56;;;9.30;46.60
13934;BME280;7039;52.168;9.866;2023-03-16T11:23:14;100910.66;;;9.88;47.54
13934;BME280;7039;52.168;9.866;2023-03-16T11:26:04;100913.78;;;9.96;46.39
13934;BME280;7039;52.168;9.866;2023-03-16T11:54:54;100876.31;;;11.20;47.84
13934;BME280;7039;52.168;9.866;2023-03-16T12:14:47;100832.72;;;11.59;46.52
13934;BME280;7039;52.168;9.866;2023-03-16T12:19:58;100831.31;;;11.15;46.07
13934;BME280;7039;52.168;9.866;2023-03-16T12:23:01;100832.84;;;11.00;46.74
13934;BME280;7039;52.168;9.866;2023-03-16T13:09:06;100778.72;;;11.77;41.91
13934;BME280;7039;52.168;9.866;2023-03-16T13:39:52;100730.75;;;11.95;40.06
13934;BME280;7039;52.168;9.866;2023-03-16T13:52:57;100724.47;;;12.80;39.18
13934;BME280;7039;52.168;9.866;2023-03-16T13:55:30;100718.72;;;12.73;38.04
13934;BME280;7039;52.168;9.866;2023-03-16T14:01:24;100700.44;;;11.74;37.40
13934;BME280;7039;52.168;9.866;2023-03-16T14:03:54;100699.25;;;11.63;38.59
13934;BME280;7039;52.168;9.866;2023-03-16T14:06:23;100696.47;;;11.66;40.06
13934;BME280;7039;52.168;9.866;2023-03-16T14:08:54;100680.25;;;11.60;40.44
13934;BME280;7039;52.168;9.866;2023-03-16T14:11:24;100682.63;;;11.99;41.31
13934;BME280;7039;52.168;9.866;2023-03-16T14:13:52;100672.06;;;11.50;40.01
13934;BME280;7039;52.168;9.866;2023-03-16T14:16:21;100676.88;;;11.58;39.83
13934;BME280;7039;52.168;9.866;2023-03-16T14:18:53;100677.56;;;11.79;39.86
13934;BME280;7039;52.168;9.866;2023-03-16T14:21:21;100684.66;;;11.59;41.67
13934;BME280;7039;52.168;9.866;2023-03-16T14:23:51;100679.19;;;11.46;41.28
13934;BME280;7039;52.168;9.866;2023-03-16T14:26:18;100673.78;;;11.67;42.51
13934;BME280;7039;52.168;9.866;2023-03-16T14:29:04;100669.03;;;11.75;43.17
13934;BME280;7039;52.168;9.866;2023-03-16T14:31:33;100657.28;;;11.66;43.44
13934;BME280;7039;52.168;9.866;2023-03-16T14:34:05;100657.16;;;11.35;43.90
13934;BME280;7039;52.168;9.866;2023-03-16T14:36:35;100638.03;;;10.99;44.47
13934;BME280;7039;52.168;9.866;2023-03-16T14:39:09;100651.72;;;10.68;45.37
13934;BME280;7039;52.168;9.866;2023-03-16T14:41:36;100651.13;;;10.80;45.25
13934;BME280;7039;52.168;9.866;2023-03-16T14:44:16;100640.38;;;10.50;44.96
13934;BME280;7039;52.168;9.866;2023-03-16T14:46:45;100637.16;;;10.99;44.97
13934;BME280;7039;52.168;9.866;2023-03-16T14:49:19;100634.94;;;10.55;45.37
13934;BME280;7039;52.168;9.866;2023-03-16T14:51:47;100621.34;;;10.48;45.72
13934;BME280;7039;52.168;9.866;2023-03-16T14:56:51;100626.66;;;11.00;45.20
13934;BME280;7039;52.168;9.866;2023-03-16T14:59:19;100617.06;;;11.36;44.59
13934;BME280;7039;52.168;9.866;2023-03-16T15:04:21;100621.03;;;10.73;45.48
13934;BME280;7039;52.168;9.866;2023-03-16T15:07:23;100615.63;;;10.59;45.64
13934;BME280;7039;52.168;9.866;2023-03-16T15:09:55;100617.63;;;10.54;45.53
13934;BME280;7039;52.168;9.866;2023-03-16T15:12:30;100612.28;;;10.38;46.52
13934;BME280;7039;52.168;9.866;2023-03-16T15:15:08;100602.38;;;10.44;45.57
13934;BME280;7039;52.168;9.866;2023-03-16T15:17:43;100597.66;;;10.15;46.22
13934;BME280;7039;52.168;9.866;2023-03-16T15:20:11;100586.28;;;10.17;46.03
13934;BME280;7039;52.168;9.866;2023-03-16T15:22:38;100590.28;;;10.24;46.19
13934;BME280;7039;52.168;9.866;2023-03-16T15:25:18;100593.47;;;10.31;46.16
13934;BME280;7039;52.168;9.866;2023-03-16T15:27:46;100595.56;;;10.42;46.15
13934;BME280;7039;52.168;9.866;2023-03-16T15:30:17;100595.38;;;10.64;46.68
13934;BME280;7039;52.168;9.866;2023-03-16T15:32:44;100602.22;;;10.66;46.09
13934;BME280;7039;52.168;9.866;2023-03-16T15:35:11;100602.50;;;10.60;45.38
13934;BME280;7039;52.168;9.866;2023-03-16T15:37:38;100589.78;;;10.35;45.75
13934;BME280;7039;52.168;9.866;2023-03-16T15:40:14;100577.03;;;10.48;45.01